Time;durP1;ratioP1;P1;durP2;ratioP2;P2;SDS_P1;SDS_P2;PMS_P1;PMS_P2;Temp;Humidity;BMP_temperature;BMP_pressure;BME280_temperature;BME280_humidity;BME280_pressure;Samples;Min_cycle;Max_cycle;Signal;HPM_P1;HPM_P2
2023/12/22 00:00:20;;;;;;;9.07;3.03;;;16.10;65.40;;;;;;5045642;28;20529;-77
2023/12/22 00:02:49;;;;;;;5.47;2.40;;;16.00;65.40;;;;;;5052532;28;20442;-76
2023/12/22 00:05:17;;;;;;;7.20;2.40;;;16.10;65.60;;;;;;5044853;28;20471;-76
2023/12/22 00:07:45;;;;;;;8.00;2.83;;;16.10;65.30;;;;;;5048279;28;20520;-75
2023/12/22 00:10:14;;;;;;;9.17;2.77;;;16.10;65.40;;;;;;5050855;28;20537;-76
2023/12/22 00:12:42;;;;;;;5.10;2.40;;;16.10;65.30;;;;;;5044416;28;20447;-76
2023/12/22 00:15:10;;;;;;;6.97;3.00;;;16.10;65.00;;;;;;5050486;28;20529;-77
2023/12/22 00:17:37;;;;;;;9.20;2.70;;;16.10;65.30;;;;;;5045172;28;20557;-76
2023/12/22 00:20:12;;;;;;;5.93;2.70;;;16.10;65.30;;;;;;5044795;28;20521;-77
2023/12/22 00:22:41;;;;;;;10.53;2.77;;;16.10;65.20;;;;;;5040443;28;20454;-77
2023/12/22 00:25:09;;;;;;;7.30;2.17;;;16.00;65.30;;;;;;5036919;28;20478;-76
2023/12/22 00:27:37;;;;;;;8.23;3.00;;;16.00;65.80;;;;;;5042118;28;20463;-77
2023/12/22 00:30:06;;;;;;;8.33;2.70;;;16.00;65.20;;;;;;5052224;28;20504;-76
2023/12/22 00:32:35;;;;;;;6.70;2.77;;;16.00;65.10;;;;;;5048604;28;20500;-76
2023/12/22 00:35:04;;;;;;;6.57;2.50;;;16.00;65.30;;;;;;5045910;28;20443;-78
2023/12/22 00:37:34;;;;;;;8.03;2.70;;;16.00;64.90;;;;;;5041781;28;20486;-76
2023/12/22 00:40:02;;;;;;;10.27;3.17;;;15.90;65.00;;;;;;5040822;28;20439;-76
2023/12/22 00:42:30;;;;;;;10.70;2.53;;;15.90;65.10;;;;;;5038219;28;20537;-76
2023/12/22 00:44:58;;;;;;;6.90;2.50;;;15.90;64.90;;;;;;5045020;28;20463;-76
2023/12/22 00:47:26;;;;;;;6.70;2.40;;;15.90;64.90;;;;;;5048474;28;20458;-77
2023/12/22 00:49:53;;;;;;;6.10;2.80;;;15.90;64.90;;;;;;5050654;28;20484;-76
2023/12/22 00:52:21;;;;;;;9.23;2.90;;;15.90;64.60;;;;;;5053251;28;20503;-77
2023/12/22 00:54:51;;;;;;;7.43;2.70;;;15.90;65.20;;;;;;5052977;28;20435;-77
2023/12/22 00:57:18;;;;;;;7.43;2.90;;;15.90;64.60;;;;;;5053619;28;20582;-77
2023/12/22 00:59:48;;;;;;;5.57;2.57;;;15.90;64.90;;;;;;5051742;28;20558;-77
2023/12/22 01:02:16;;;;;;;10.30;2.83;;;15.90;65.00;;;;;;5053055;28;20534;-78
2023/12/22 01:04:44;;;;;;;3.70;2.10;;;15.90;65.00;;;;;;5042445;28;20455;-76
2023/12/22 01:07:14;;;;;;;5.07;2.20;;;15.90;64.80;;;;;;5044883;28;20562;-77
2023/12/22 01:09:43;;;;;;;5.83;2.90;;;15.90;64.90;;;;;;5054938;28;20453;-76
2023/12/22 01:12:13;;;;;;;6.20;2.67;;;15.90;65.00;;;;;;5055023;28;20446;-77
2023/12/22 01:14:40;;;;;;;8.80;2.10;;;15.90;64.90;;;;;;5048405;28;20446;-76
2023/12/22 01:17:09;;;;;;;7.93;2.60;;;15.90;65.10;;;;;;5053280;28;20559;-77
2023/12/22 01:19:37;;;;;;;6.40;2.60;;;15.90;64.90;;;;;;5045117;28;20454;-77
2023/12/22 01:22:05;;;;;;;7.77;3.00;;;15.90;65.20;;;;;;5049410;28;20493;-77
2023/12/22 01:24:33;;;;;;;8.50;2.77;;;16.00;65.20;;;;;;5040665;28;20531;-77
2023/12/22 01:27:01;;;;;;;6.00;2.37;;;15.90;65.00;;;;;;5047411;28;20512;-77
2023/12/22 01:29:31;;;;;;;4.77;2.20;;;16.00;65.50;;;;;;5051101;28;20443;-77
2023/12/22 01:31:58;;;;;;;4.60;1.97;;;15.90;65.50;;;;;;5050068;28;20486;-77
2023/12/22 01:34:27;;;;;;;6.23;2.40;;;15.90;65.50;;;;;;5049277;28;20439;-77
2023/12/22 01:36:55;;;;;;;4.77;3.00;;;15.90;65.30;;;;;;5041110;28;20459;-77
2023/12/22 01:39:23;;;;;;;6.13;2.07;;;15.90;65.50;;;;;;5040789;28;20521;-77
2023/12/22 01:41:51;;;;;;;4.90;2.40;;;15.90;65.20;;;;;;5039708;28;20443;-77
2023/12/22 01:44:19;;;;;;;3.53;2.20;;;16.00;65.30;;;;;;5035607;28;20459;-78
2023/12/22 01:46:48;;;;;;;4.00;2.50;;;15.90;65.20;;;;;;5039793;28;20935;-77
2023/12/22 01:49:22;;;;;;;6.33;2.43;;;15.90;65.10;;;;;;5037886;22;20503;-84
2023/12/22 01:52:01;;;;;;;10.00;2.40;;;15.90;65.20;;;;;;5014969;28;20459;-85
2023/12/22 01:54:42;;;;;;;8.03;2.80;;;15.90;65.50;;;;;;5013149;28;20440;-85
2023/12/22 01:57:25;;;;;;;7.17;2.83;;;15.90;65.40;;;;;;5013800;28;20546;-85
2023/12/22 01:59:56;;;;;;;9.43;2.87;;;15.90;65.20;;;;;;5013639;28;20502;-85
2023/12/22 02:02:32;;;;;;;5.63;2.20;;;15.90;65.30;;;;;;5014170;28;20448;-82
2023/12/22 02:05:09;;;;;;;6.57;3.17;;;15.90;65.30;;;;;;5015147;28;20452;-84
2023/12/22 02:07:37;;;;;;;5.40;2.33;;;15.80;64.90;;;;;;5010818;28;20456;-83
2023/12/22 02:10:05;;;;;;;5.33;2.40;;;15.80;65.10;;;;;;5023460;28;20440;-83
2023/12/22 02:12:34;;;;;;;4.27;2.07;;;15.80;65.00;;;;;;5027161;28;20488;-83
2023/12/22 02:15:02;;;;;;;7.00;2.30;;;15.80;65.40;;;;;;5023500;28;20958;-84
2023/12/22 02:17:35;;;;;;;5.80;2.23;;;15.80;65.00;;;;;;5023328;28;20473;-83
2023/12/22 02:20:04;;;;;;;7.70;2.10;;;15.80;65.10;;;;;;5022224;28;20444;-83
2023/12/22 02:22:33;;;;;;;4.80;2.27;;;15.80;65.00;;;;;;5018635;28;20448;-82
2023/12/22 02:25:01;;;;;;;3.53;1.80;;;15.80;64.90;;;;;;5010786;28;20449;-82
2023/12/22 02:27:32;;;;;;;6.33;2.63;;;15.80;64.80;;;;;;5012728;28;20511;-83
2023/12/22 02:30:04;;;;;;;4.57;2.00;;;15.80;65.00;;;;;;5015212;28;20428;-83
2023/12/22 02:32:35;;;;;;;4.57;2.10;;;15.70;64.80;;;;;;5016233;28;20445;-84
2023/12/22 02:35:05;;;;;;;9.70;2.40;;;15.70;64.60;;;;;;5016832;28;20473;-83
2023/12/22 02:37:35;;;;;;;5.83;2.10;;;15.70;64.70;;;;;;5015160;28;20464;-83
2023/12/22 02:40:04;;;;;;;8.30;2.17;;;15.70;64.40;;;;;;5014128;28;20475;-84
2023/12/22 02:42:34;;;;;;;6.40;2.50;;;15.70;64.40;;;;;;5015436;28;20441;-84
2023/12/22 02:45:02;;;;;;;3.33;1.63;;;15.60;64.40;;;;;;5015352;28;20452;-83
2023/12/22 02:47:32;;;;;;;6.07;2.10;;;15.70;64.80;;;;;;5014231;28;20480;-83
2023/12/22 02:50:00;;;;;;;4.30;2.07;;;15.60;64.20;;;;;;5014618;28;20452;-83
2023/12/22 02:52:28;;;;;;;2.70;1.87;;;15.60;64.30;;;;;;5016622;28;20453;-83
2023/12/22 02:54:58;;;;;;;6.50;2.43;;;15.60;64.20;;;;;;5018728;28;20440;-84
2023/12/22 02:57:26;;;;;;;5.00;2.10;;;15.60;64.30;;;;;;5018403;28;20486;-82
2023/12/22 02:59:55;;;;;;;5.67;2.37;;;15.60;64.80;;;;;;5018126;28;20481;-83
2023/12/22 03:02:23;;;;;;;5.50;2.17;;;15.60;64.10;;;;;;5021194;28;20471;-81
2023/12/22 03:04:51;;;;;;;8.27;2.50;;;15.60;64.10;;;;;;5023087;28;20433;-82
2023/12/22 03:07:19;;;;;;;3.10;2.20;;;15.60;64.00;;;;;;5019265;28;20448;-83
2023/12/22 03:09:48;;;;;;;3.23;1.50;;;15.50;63.60;;;;;;5019668;28;20436;-82
2023/12/22 03:12:17;;;;;;;4.73;2.00;;;15.50;64.20;;;;;;5014557;28;20478;-82
2023/12/22 03:14:45;;;;;;;5.63;1.93;;;15.60;64.30;;;;;;5008529;28;20432;-83
2023/12/22 03:17:14;;;;;;;9.43;2.40;;;15.60;64.20;;;;;;5018395;28;20440;-83
2023/12/22 03:19:42;;;;;;;5.03;2.10;;;15.60;64.60;;;;;;5016644;28;20475;-83
2023/12/22 03:22:11;;;;;;;3.20;1.63;;;15.60;64.20;;;;;;5017606;28;20451;-83
2023/12/22 03:24:39;;;;;;;6.30;2.00;;;15.60;64.10;;;;;;5015817;28;20461;-84
2023/12/22 03:27:07;;;;;;;5.83;2.30;;;15.60;63.80;;;;;;5017292;28;20449;-83
2023/12/22 03:29:37;;;;;;;7.43;2.03;;;15.60;64.10;;;;;;5017111;28;20452;-83
2023/12/22 03:32:09;;;;;;;6.43;1.63;;;15.50;64.30;;;;;;5019346;28;20494;-83
2023/12/22 03:34:37;;;;;;;2.00;1.80;;;15.50;64.10;;;;;;5019314;28;20499;-83
2023/12/22 03:37:06;;;;;;;5.23;1.93;;;15.50;64.00;;;;;;5020451;28;20459;-83
2023/12/22 03:39:34;;;;;;;4.37;2.27;;;15.50;64.20;;;;;;5014052;28;20500;-83
2023/12/22 03:42:02;;;;;;;7.00;2.43;;;15.50;63.90;;;;;;5022085;28;20444;-83
2023/12/22 03:44:31;;;;;;;4.30;2.00;;;15.50;63.80;;;;;;5024496;28;20445;-83
2023/12/22 03:47:01;;;;;;;5.13;2.03;;;15.50;64.30;;;;;;5023637;28;20963;-83
2023/12/22 03:49:29;;;;;;;7.00;2.20;;;15.50;64.10;;;;;;5021903;28;20487;-83
2023/12/22 03:51:57;;;;;;;5.23;2.27;;;15.50;63.90;;;;;;5016300;28;20452;-84
2023/12/22 03:54:27;;;;;;;7.17;2.30;;;15.50;63.70;;;;;;5015532;28;20583;-84
2023/12/22 03:56:55;;;;;;;5.47;2.20;;;15.50;63.90;;;;;;5018255;28;20444;-85
2023/12/22 03:59:23;;;;;;;6.77;1.80;;;15.50;63.80;;;;;;5017309;28;20522;-84
2023/12/22 04:01:53;;;;;;;8.33;2.10;;;15.50;63.80;;;;;;5015364;28;20456;-84
2023/12/22 04:04:23;;;;;;;4.63;1.80;;;15.50;63.90;;;;;;5023854;28;20528;-83
2023/12/22 04:06:51;;;;;;;8.20;2.63;;;15.40;63.70;;;;;;5020647;28;20444;-83
2023/12/22 04:09:20;;;;;;;6.40;2.77;;;15.50;63.80;;;;;;5013042;28;20507;-83
2023/12/22 04:11:48;;;;;;;6.37;2.37;;;15.50;63.60;;;;;;5016663;28;20448;-83
2023/12/22 04:14:18;;;;;;;6.57;2.00;;;15.50;63.70;;;;;;5017919;28;20445;-83
2023/12/22 04:16:46;;;;;;;6.23;2.30;;;15.50;63.70;;;;;;5018103;28;20440;-83
2023/12/22 04:19:15;;;;;;;4.87;2.00;;;15.50;63.70;;;;;;5016665;28;20532;-83
2023/12/22 04:21:45;;;;;;;4.00;1.80;;;15.50;63.90;;;;;;5006486;28;20464;-83
2023/12/22 04:24:13;;;;;;;6.90;2.07;;;15.50;63.70;;;;;;5012542;28;20479;-83
2023/12/22 04:26:41;;;;;;;5.50;2.20;;;15.50;64.00;;;;;;5017930;28;20448;-82
2023/12/22 04:29:09;;;;;;;3.10;2.30;;;15.50;63.90;;;;;;5017881;28;20479;-83
2023/12/22 04:31:38;;;;;;;5.67;1.80;;;15.50;63.50;;;;;;5018554;28;20502;-82
2023/12/22 04:34:06;;;;;;;5.60;1.80;;;15.50;64.00;;;;;;5020088;28;20448;-82
2023/12/22 04:36:34;;;;;;;7.73;1.93;;;15.50;63.90;;;;;;5018083;28;20444;-83
2023/12/22 04:39:04;;;;;;;7.70;2.60;;;15.50;63.90;;;;;;5017179;28;20468;-83
2023/12/22 04:41:36;;;;;;;4.83;2.10;;;15.50;63.60;;;;;;5015716;28;20883;-84
2023/12/22 04:44:07;;;;;;;5.10;2.17;;;15.40;63.90;;;;;;5017182;28;20440;-83
2023/12/22 04:46:35;;;;;;;6.47;2.10;;;15.40;63.90;;;;;;5014630;28;20839;-83
2023/12/22 04:49:08;;;;;;;5.37;2.20;;;15.50;64.10;;;;;;5016475;28;20476;-83
2023/12/22 04:51:37;;;;;;;8.20;2.30;;;15.40;63.80;;;;;;5017731;28;20440;-83
2023/12/22 04:54:09;;;;;;;6.70;2.27;;;15.40;64.10;;;;;;5014788;28;20458;-83
2023/12/22 04:56:37;;;;;;;12.20;2.37;;;15.40;63.70;;;;;;5015570;28;20480;-84
2023/12/22 04:59:05;;;;;;;6.83;2.20;;;15.40;63.60;;;;;;5015157;28;20515;-84
2023/12/22 05:01:35;;;;;;;4.20;1.87;;;15.40;64.00;;;;;;5015629;28;20453;-84
2023/12/22 05:04:18;;;;;;;9.80;2.33;;;15.40;63.70;;;;;;5014522;28;20432;-85
2023/12/22 05:06:46;;;;;;;8.27;2.27;;;15.50;63.90;;;;;;5018053;28;20515;-83
2023/12/22 05:09:16;;;;;;;6.27;1.90;;;15.40;63.60;;;;;;5024831;28;20464;-82
2023/12/22 05:11:45;;;;;;;8.60;2.10;;;15.40;64.30;;;;;;5026393;28;20456;-82
2023/12/22 05:14:13;;;;;;;4.80;2.00;;;15.40;64.10;;;;;;5029972;28;20471;-84
2023/12/22 05:16:44;;;;;;;9.57;2.13;;;15.40;64.10;;;;;;5017676;28;20429;-83
2023/12/22 05:19:13;;;;;;;8.20;2.17;;;15.40;63.90;;;;;;5017069;28;20476;-83
2023/12/22 05:21:41;;;;;;;5.90;2.10;;;15.50;64.00;;;;;;5012467;28;20439;-83
2023/12/22 05:24:09;;;;;;;6.00;2.23;;;15.40;63.90;;;;;;5016252;28;20460;-83
2023/12/22 05:26:39;;;;;;;7.83;2.40;;;15.40;64.10;;;;;;5016592;28;20444;-83
2023/12/22 05:29:09;;;;;;;5.03;2.00;;;15.40;63.60;;;;;;5016113;28;20464;-83
2023/12/22 05:31:37;;;;;;;8.97;1.80;;;15.40;64.10;;;;;;5016023;28;20452;-83
2023/12/22 05:34:05;;;;;;;7.50;2.23;;;15.40;64.00;;;;;;5016816;28;20448;-83
2023/12/22 05:36:34;;;;;;;5.40;1.60;;;15.30;63.80;;;;;;5016805;28;20440;-83
2023/12/22 05:39:07;;;;;;;4.60;1.67;;;15.30;64.00;;;;;;5015240;28;20480;-83
2023/12/22 05:41:58;;;;;;;6.00;2.07;;;15.20;63.90;;;;;;5018196;28;20532;-83
2023/12/22 05:44:38;;;;;;;4.13;1.67;;;15.20;63.70;;;;;;5012829;28;20450;-83
2023/12/22 05:47:14;;;;;;;5.80;2.20;;;15.20;63.60;;;;;;5010756;28;20448;-83
2023/12/22 05:49:55;;;;;;;5.13;1.63;;;15.20;63.70;;;;;;5016370;28;20464;-83
2023/12/22 05:52:45;;;;;;;5.70;1.63;;;15.30;63.50;;;;;;5022086;28;20441;-83
2023/12/22 05:55:13;;;;;;;5.23;1.77;;;15.20;63.50;;;;;;5015336;28;20534;-83
2023/12/22 05:57:44;;;;;;;4.10;1.77;;;15.20;63.40;;;;;;5015636;28;20468;-83
2023/12/22 06:00:17;;;;;;;6.00;2.10;;;15.20;63.50;;;;;;5015928;28;20475;-83
2023/12/22 06:02:46;;;;;;;6.80;1.77;;;15.20;63.40;;;;;;5016376;28;20444;-83
2023/12/22 06:05:18;;;;;;;7.23;2.10;;;15.20;63.40;;;;;;5018264;28;20444;-83
2023/12/22 06:07:46;;;;;;;8.30;2.00;;;15.20;63.30;;;;;;5014835;28;20539;-83
2023/12/22 06:10:15;;;;;;;6.43;1.97;;;15.20;63.60;;;;;;5013002;28;20441;-83
2023/12/22 06:12:45;;;;;;;4.33;1.97;;;15.20;63.60;;;;;;5015484;28;20518;-84
2023/12/22 06:15:14;;;;;;;8.57;2.47;;;15.30;63.40;;;;;;5015899;28;20456;-84
2023/12/22 06:17:42;;;;;;;4.00;1.80;;;15.20;63.20;;;;;;5012477;28;20468;-84
2023/12/22 06:20:11;;;;;;;3.10;1.73;;;15.20;63.60;;;;;;5016206;28;20467;-83
2023/12/22 06:22:40;;;;;;;5.80;2.20;;;15.30;63.50;;;;;;5010781;28;20482;-84
2023/12/22 06:25:14;;;;;;;3.50;1.47;;;15.30;63.80;;;;;;5016032;28;20516;-84
2023/12/22 06:27:48;;;;;;;6.00;1.80;;;15.30;63.40;;;;;;5011960;28;20510;-84
2023/12/22 06:30:16;;;;;;;3.80;2.00;;;15.30;63.40;;;;;;5011522;28;20433;-84
2023/12/22 06:32:45;;;;;;;2.80;1.70;;;15.30;63.60;;;;;;5015641;28;20449;-84
2023/12/22 06:35:13;;;;;;;3.97;1.80;;;15.30;63.50;;;;;;5022147;28;20459;-84
2023/12/22 06:37:45;;;;;;;3.73;1.90;;;15.30;63.60;;;;;;5012469;28;20480;-85
2023/12/22 06:40:14;;;;;;;5.33;2.00;;;15.30;63.70;;;;;;5027550;28;21005;-85
2023/12/22 06:42:42;;;;;;;3.93;2.20;;;15.20;63.70;;;;;;5026469;28;20455;-86
2023/12/22 06:45:14;;;;;;;3.00;1.70;;;15.30;63.80;;;;;;5017838;28;20450;-85
2023/12/22 06:47:42;;;;;;;3.10;1.50;;;15.30;63.80;;;;;;5014151;28;20471;-85
2023/12/22 06:50:11;;;;;;;7.40;2.00;;;15.30;63.70;;;;;;5015161;28;20446;-85
2023/12/22 06:52:44;;;;;;;5.80;1.93;;;15.30;63.70;;;;;;5024867;28;20443;-85
2023/12/22 06:55:16;;;;;;;8.33;2.03;;;15.30;64.00;;;;;;5006035;28;20532;-84
2023/12/22 06:57:50;;;;;;;6.87;2.27;;;15.40;63.90;;;;;;4997998;28;20533;-84
2023/12/22 07:00:20;;;;;;;3.73;1.50;;;15.40;63.90;;;;;;5010408;28;20483;-85
2023/12/22 07:02:49;;;;;;;5.60;2.10;;;15.40;64.00;;;;;;5017155;28;20502;-83
2023/12/22 07:05:39;;;;;;;7.20;1.90;;;15.40;64.00;;;;;;5016571;28;20510;-83
2023/12/22 07:08:07;;;;;;;8.23;2.17;;;15.40;64.00;;;;;;5014920;28;20472;-83
2023/12/22 07:10:34;;;;;;;5.77;2.10;;;15.40;64.10;;;;;;5014160;28;20456;-84
2023/12/22 07:13:02;;;;;;;5.50;1.70;;;15.40;64.30;;;;;;5014721;28;20455;-85
2023/12/22 07:15:35;;;;;;;7.53;1.93;;;15.40;64.00;;;;;;5015838;28;20444;-84
2023/12/22 07:18:05;;;;;;;9.00;2.53;;;15.40;64.10;;;;;;5016721;28;20472;-84
2023/12/22 07:20:36;;;;;;;4.43;2.27;;;15.40;64.40;;;;;;5014512;28;20471;-85
2023/12/22 07:23:04;;;;;;;5.00;2.00;;;15.40;64.30;;;;;;5013638;28;20890;-83
2023/12/22 07:25:38;;;;;;;9.50;2.40;;;15.50;64.40;;;;;;5014202;28;20452;-83
2023/12/22 07:28:07;;;;;;;5.37;2.20;;;15.50;64.30;;;;;;5006088;28;20484;-83
2023/12/22 07:30:36;;;;;;;4.30;2.20;;;15.50;64.30;;;;;;4995844;28;20500;-84
2023/12/22 07:33:05;;;;;;;7.43;2.20;;;15.50;64.50;;;;;;4998130;28;20523;-83
2023/12/22 07:35:34;;;;;;;8.37;2.10;;;15.50;64.30;;;;;;5005988;28;20458;-83
2023/12/22 07:38:03;;;;;;;4.90;2.27;;;15.50;64.20;;;;;;5016193;28;20475;-83
2023/12/22 07:40:31;;;;;;;4.67;2.10;;;15.50;64.40;;;;;;5018009;28;20535;-83
2023/12/22 07:42:59;;;;;;;4.93;2.00;;;15.50;64.50;;;;;;5020746;28;20436;-83
2023/12/22 07:45:28;;;;;;;6.90;2.47;;;15.50;64.40;;;;;;5019258;28;20467;-83
2023/12/22 07:47:57;;;;;;;7.00;2.23;;;15.50;64.40;;;;;;5041692;22;20471;-75
2023/12/22 07:50:27;;;;;;;8.70;2.17;;;15.50;64.30;;;;;;5027364;28;20460;-75
2023/12/22 07:52:55;;;;;;;5.93;2.17;;;15.50;64.60;;;;;;5030811;28;20526;-76
2023/12/22 07:55:23;;;;;;;6.23;2.00;;;15.50;65.30;;;;;;5030449;28;20458;-76
2023/12/22 07:57:52;;;;;;;5.67;2.37;;;15.60;64.70;;;;;;5030725;28;20451;-76
2023/12/22 08:00:20;;;;;;;6.80;2.57;;;15.50;64.60;;;;;;5029679;28;20431;-75
2023/12/22 08:02:48;;;;;;;6.10;2.27;;;15.60;64.80;;;;;;5032390;28;20515;-75
2023/12/22 08:05:18;;;;;;;20.27;3.70;;;15.60;64.80;;;;;;5033974;28;20486;-75
2023/12/22 08:07:46;;;;;;;22.20;3.33;;;14.90;56.60;;;;;;5033656;28;20481;-75
2023/12/22 08:10:15;;;;;;;34.13;5.03;;;14.00;59.70;;;;;;5029384;28;20455;-75
2023/12/22 08:12:43;;;;;;;33.17;4.90;;;13.50;55.50;;;;;;5028490;28;20462;-75
2023/12/22 08:15:12;;;;;;;20.70;4.37;;;12.30;55.20;;;;;;5026808;28;20471;-75
2023/12/22 08:17:52;;;;;;;13.97;3.10;;;12.10;58.40;;;;;;5028090;28;20527;-75
2023/12/22 08:20:22;;;;;;;16.40;3.73;;;12.10;58.20;;;;;;5031957;28;20466;-76
2023/12/22 08:22:58;;;;;;;25.53;3.97;;;11.80;57.80;;;;;;5032185;28;20505;-75
2023/12/22 08:25:32;;;;;;;19.30;4.40;;;11.60;56.90;;;;;;5028879;28;20435;-74
2023/12/22 08:28:01;;;;;;;21.87;3.80;;;11.30;57.00;;;;;;5030792;28;20451;-78
2023/12/22 08:30:29;;;;;;;24.10;4.33;;;11.40;59.10;;;;;;5027078;28;20493;-77
2023/12/22 08:32:57;;;;;;;23.20;3.83;;;12.10;58.30;;;;;;5031389;28;20431;-77
2023/12/22 08:35:27;;;;;;;21.77;4.20;;;12.70;57.10;;;;;;5032254;28;20443;-77
2023/12/22 08:37:55;;;;;;;13.07;3.73;;;13.10;56.50;;;;;;5030494;28;20439;-77
2023/12/22 08:40:26;;;;;;;17.57;3.33;;;13.30;56.40;;;;;;5030741;28;20458;-77
2023/12/22 08:42:59;;;;;;;19.07;3.90;;;13.50;55.80;;;;;;5030028;28;20483;-77
2023/12/22 08:45:29;;;;;;;21.67;3.97;;;13.60;55.40;;;;;;5028099;28;20580;-77
2023/12/22 08:47:58;;;;;;;15.93;3.47;;;13.80;55.30;;;;;;5031775;28;20481;-77
2023/12/22 08:50:27;;;;;;;17.17;3.37;;;13.90;55.00;;;;;;5031492;28;20452;-77
2023/12/22 08:52:55;;;;;;;13.73;3.40;;;13.80;55.10;;;;;;5031680;28;20439;-77
2023/12/22 08:55:23;;;;;;;22.53;3.30;;;13.80;55.40;;;;;;5031029;28;20478;-76
2023/12/22 08:57:52;;;;;;;12.43;2.87;;;13.80;55.00;;;;;;5029589;28;20973;-77
2023/12/22 09:00:29;;;;;;;16.90;2.90;;;13.90;55.50;;;;;;5028840;28;20443;-77
2023/12/22 09:02:58;;;;;;;15.30;3.43;;;14.00;55.60;;;;;;5030692;28;20467;-76
2023/12/22 09:05:27;;;;;;;13.50;3.37;;;13.90;55.20;;;;;;5030884;28;20449;-76
2023/12/22 09:07:55;;;;;;;23.53;3.90;;;14.00;55.70;;;;;;5028537;28;20439;-76
2023/12/22 09:10:25;;;;;;;17.10;2.80;;;14.00;56.00;;;;;;5031467;28;20997;-76
2023/12/22 09:12:53;;;;;;;12.90;2.80;;;14.00;56.10;;;;;;5031726;28;20447;-76
2023/12/22 09:15:21;;;;;;;12.77;2.97;;;13.90;57.00;;;;;;5030650;28;20447;-76
2023/12/22 09:17:49;;;;;;;13.50;3.17;;;14.00;57.00;;;;;;5030847;28;20470;-76
2023/12/22 09:20:18;;;;;;;9.10;2.70;;;14.00;57.10;;;;;;5031554;28;20511;-76
2023/12/22 09:22:47;;;;;;;13.67;3.27;;;14.00;58.00;;;;;;5031127;28;20471;-76
2023/12/22 09:25:16;;;;;;;15.93;3.00;;;14.00;58.20;;;;;;5031369;28;20451;-76
2023/12/22 09:27:44;;;;;;;12.83;2.47;;;13.90;57.90;;;;;;5030585;28;20530;-76
2023/12/22 09:30:13;;;;;;;10.03;3.20;;;14.00;58.00;;;;;;5030513;28;20479;-76
2023/12/22 09:32:41;;;;;;;8.20;2.13;;;14.10;58.10;;;;;;5031406;28;20473;-76
2023/12/22 09:35:09;;;;;;;6.90;2.00;;;14.10;58.20;;;;;;5031526;28;20439;-77
2023/12/22 09:37:38;;;;;;;8.53;2.33;;;14.00;58.20;;;;;;5030873;28;20546;-76
2023/12/22 09:40:10;;;;;;;7.67;1.97;;;14.00;58.20;;;;;;5030523;28;20517;-76
2023/12/22 09:42:39;;;;;;;12.03;2.67;;;13.90;58.40;;;;;;5030802;28;20577;-76
2023/12/22 09:45:07;;;;;;;10.60;2.30;;;13.90;58.60;;;;;;5030946;28;20479;-76
2023/12/22 09:47:36;;;;;;;12.60;2.80;;;13.80;58.70;;;;;;5030528;28;20431;-76
2023/12/22 09:50:05;;;;;;;16.27;3.10;;;13.80;58.70;;;;;;5030370;28;20483;-76
2023/12/22 09:52:32;;;;;;;8.30;2.60;;;13.90;58.90;;;;;;5029977;28;20438;-76
2023/12/22 09:55:02;;;;;;;9.10;2.57;;;13.90;59.10;;;;;;5030486;28;21034;-77
2023/12/22 09:57:31;;;;;;;12.70;2.87;;;13.90;58.80;;;;;;5021044;28;20498;-76
2023/12/22 09:59:59;;;;;;;16.93;2.80;;;13.90;58.90;;;;;;5010724;28;20476;-76
2023/12/22 10:02:27;;;;;;;12.13;3.30;;;13.90;59.30;;;;;;5014732;28;20475;-75
2023/12/22 10:04:55;;;;;;;16.37;3.73;;;13.80;59.30;;;;;;5030691;28;20482;-75
2023/12/22 10:07:23;;;;;;;15.40;3.30;;;13.90;59.60;;;;;;5032302;28;20443;-76
2023/12/22 10:09:51;;;;;;;10.83;3.77;;;14.00;59.30;;;;;;5029910;28;20471;-75
2023/12/22 10:12:20;;;;;;;15.50;3.90;;;14.20;59.90;;;;;;5029582;28;20523;-76
2023/12/22 10:14:49;;;;;;;13.83;3.60;;;14.40;59.60;;;;;;5021303;28;20448;-76
2023/12/22 10:17:18;;;;;;;18.50;4.47;;;14.50;59.00;;;;;;5019957;28;20473;-76
2023/12/22 10:19:46;;;;;;;17.87;5.17;;;14.50;59.20;;;;;;5049629;28;20479;-77
2023/12/22 10:22:15;;;;;;;16.27;4.60;;;14.60;59.40;;;;;;5045602;28;20498;-77
2023/12/22 10:24:47;;;;;;;14.80;4.80;;;14.70;59.10;;;;;;5030459;28;20482;-77
2023/12/22 10:27:21;;;;;;;14.70;4.57;;;14.80;58.50;;;;;;5028336;28;20479;-76
2023/12/22 10:29:51;;;;;;;9.60;3.43;;;14.80;59.10;;;;;;5029560;28;20470;-76
2023/12/22 10:32:22;;;;;;;12.60;4.27;;;14.80;58.70;;;;;;5030294;28;20547;-77
2023/12/22 10:34:51;;;;;;;11.50;4.70;;;14.70;59.30;;;;;;5035510;28;20547;-76
2023/12/22 10:37:21;;;;;;;17.17;5.20;;;14.80;59.40;;;;;;5041509;28;20945;-76
2023/12/22 10:39:49;;;;;;;14.67;5.33;;;14.80;59.50;;;;;;5029723;28;20467;-77
2023/12/22 10:42:17;;;;;;;21.13;5.53;;;14.90;59.50;;;;;;5030384;28;20495;-76
2023/12/22 10:44:45;;;;;;;19.77;6.17;;;14.80;59.40;;;;;;5046138;28;20439;-77
2023/12/22 10:47:15;;;;;;;17.80;5.33;;;14.80;59.40;;;;;;5030542;28;20436;-76
2023/12/22 10:49:46;;;;;;;14.20;4.70;;;14.80;59.20;;;;;;5023589;28;20468;-77
2023/12/22 10:52:16;;;;;;;22.57;5.57;;;14.70;59.40;;;;;;5012717;28;20468;-77
2023/12/22 10:54:44;;;;;;;17.10;4.73;;;14.70;59.70;;;;;;5030706;28;20502;-76
2023/12/22 10:57:12;;;;;;;10.77;4.20;;;14.70;59.50;;;;;;5029869;28;20444;-77
2023/12/22 10:59:45;;;;;;;20.03;5.10;;;14.70;60.10;;;;;;5021385;28;20498;-76
2023/12/22 11:02:28;;;;;;;14.77;4.90;;;14.70;59.70;;;;;;5010871;28;20495;-77
2023/12/22 11:04:58;;;;;;;19.77;4.27;;;14.60;59.80;;;;;;5014096;28;20436;-77
2023/12/22 11:07:26;;;;;;;30.00;5.13;;;14.50;60.10;;;;;;5012569;28;20432;-76
2023/12/22 11:09:55;;;;;;;21.83;4.70;;;14.50;60.60;;;;;;5030546;28;20464;-77
2023/12/22 11:12:24;;;;;;;18.40;5.23;;;14.60;60.90;;;;;;5030878;28;20923;-77
2023/12/22 11:14:53;;;;;;;13.17;4.13;;;14.70;60.70;;;;;;5034225;28;20462;-77
2023/12/22 11:17:21;;;;;;;14.03;4.30;;;14.80;60.60;;;;;;5035310;28;20474;-76
2023/12/22 11:19:51;;;;;;;22.03;4.40;;;14.90;60.20;;;;;;5034594;28;20987;-76
2023/12/22 11:22:19;;;;;;;18.30;4.40;;;14.80;60.40;;;;;;5034868;28;20451;-77
2023/12/22 11:24:48;;;;;;;17.93;4.47;;;14.90;60.50;;;;;;5034912;28;20518;-76
2023/12/22 11:27:17;;;;;;;15.97;5.03;;;14.90;60.30;;;;;;5035015;28;20500;-76
2023/12/22 11:29:46;;;;;;;17.00;3.90;;;15.00;60.50;;;;;;5034253;28;20565;-76
2023/12/22 11:32:14;;;;;;;13.00;4.30;;;15.00;60.10;;;;;;5034738;28;20546;-77
2023/12/22 11:34:42;;;;;;;18.00;4.30;;;14.90;59.70;;;;;;5035293;28;20489;-77
2023/12/22 11:37:12;;;;;;;14.40;3.63;;;14.80;60.20;;;;;;5035093;28;20505;-77
2023/12/22 11:39:40;;;;;;;10.00;4.10;;;14.80;60.30;;;;;;5034672;28;20458;-77
2023/12/22 11:42:09;;;;;;;11.70;3.33;;;14.90;60.30;;;;;;5035528;28;20443;-77
2023/12/22 11:44:36;;;;;;;15.40;3.50;;;14.80;59.50;;;;;;5034699;28;20554;-77
2023/12/22 11:47:06;;;;;;;14.47;3.03;;;14.80;59.60;;;;;;5035908;28;20534;-77
2023/12/22 11:49:34;;;;;;;16.10;2.90;;;14.70;59.80;;;;;;5034547;28;20473;-77
2023/12/22 11:52:14;;;;;;;13.53;2.70;;;14.70;59.30;;;;;;5035013;28;20435;-77
2023/12/22 11:54:47;;;;;;;11.93;2.53;;;14.60;59.70;;;;;;5034472;28;20458;-77
2023/12/22 11:57:34;;;;;;;15.60;2.73;;;14.60;59.50;;;;;;5034976;28;20443;-77
2023/12/22 12:00:05;;;;;;;13.87;3.83;;;14.60;59.40;;;;;;5034721;28;20554;-77
2023/12/22 12:02:34;;;;;;;15.97;4.30;;;14.60;59.10;;;;;;5035293;28;20439;-77
2023/12/22 12:05:02;;;;;;;15.47;4.90;;;14.60;58.70;;;;;;5034728;28;20447;-77
2023/12/22 12:07:48;;;;;;;10.40;4.17;;;14.60;59.50;;;;;;5034783;28;20442;-77
2023/12/22 12:10:53;;;;;;;15.87;5.40;;;14.70;59.10;;;;;;5034830;28;20431;-77
2023/12/22 12:13:23;;;;;;;15.30;5.10;;;14.60;59.10;;;;;;5034357;28;20431;-77
2023/12/22 12:15:52;;;;;;;12.30;4.70;;;14.60;59.00;;;;;;5034231;28;20447;-78
2023/12/22 12:18:23;;;;;;;16.43;3.97;;;14.50;58.60;;;;;;5033994;28;20521;-77
2023/12/22 12:20:51;;;;;;;9.63;3.40;;;14.40;58.60;;;;;;5034379;28;20447;-77
2023/12/22 12:23:21;;;;;;;7.40;3.00;;;14.40;58.70;;;;;;5034627;28;20621;-77
2023/12/22 12:25:50;;;;;;;7.77;2.83;;;14.40;58.70;;;;;;5034149;28;20478;-77
2023/12/22 12:28:18;;;;;;;16.63;3.83;;;14.40;58.40;;;;;;5033466;28;20467;-77
2023/12/22 12:30:46;;;;;;;11.07;3.33;;;14.40;58.70;;;;;;5019358;28;20431;-77
2023/12/22 12:33:15;;;;;;;9.70;3.33;;;14.50;58.60;;;;;;5034344;28;20538;-77
2023/12/22 12:35:44;;;;;;;12.13;3.70;;;14.50;58.50;;;;;;5034689;28;20474;-77
2023/12/22 12:38:17;;;;;;;12.60;3.43;;;14.40;58.30;;;;;;5024782;28;20475;-77
2023/12/22 12:40:46;;;;;;;8.63;2.63;;;14.50;58.30;;;;;;5022555;28;20440;-76
2023/12/22 12:43:15;;;;;;;16.53;3.40;;;14.50;58.10;;;;;;5011670;28;20563;-76
2023/12/22 12:45:43;;;;;;;7.93;2.90;;;14.50;58.00;;;;;;5027687;28;20436;-77
2023/12/22 12:48:11;;;;;;;14.00;2.63;;;14.50;58.20;;;;;;5031824;28;20583;-76
2023/12/22 12:50:39;;;;;;;21.00;4.17;;;14.60;58.40;;;;;;5031668;28;20439;-77
2023/12/22 12:53:07;;;;;;;8.47;3.03;;;14.50;57.70;;;;;;5033208;28;20454;-77
2023/12/22 12:55:35;;;;;;;15.43;3.50;;;14.60;57.90;;;;;;5032642;28;20452;-76